createdAt,value
2019-03-05T00:00:46.988Z,6.80
2019-03-05T00:03:15.886Z,6.80
2019-03-05T00:05:45.903Z,6.90
2019-03-05T00:08:14.697Z,6.90
2019-03-05T00:10:43.493Z,6.80
2019-03-05T00:13:12.283Z,6.90
2019-03-05T00:15:41.304Z,6.90
2019-03-05T00:18:10.110Z,6.90
2019-03-05T00:20:38.934Z,6.90
2019-03-05T00:23:08.446Z,6.90
2019-03-05T00:25:39.630Z,6.90
2019-03-05T00:28:20.429Z,6.90
2019-03-05T00:31:03.952Z,6.90
2019-03-05T00:33:38.205Z,6.90
2019-03-05T00:36:10.223Z,6.90
2019-03-05T00:38:50.735Z,7.00
2019-03-05T00:41:49.904Z,7.00
2019-03-05T00:44:47.502Z,6.90
2019-03-05T00:47:25.063Z,6.90
2019-03-05T00:50:32.957Z,6.90
2019-03-05T00:53:17.506Z,6.90
2019-03-05T00:56:01.080Z,6.90
2019-03-05T00:58:35.592Z,6.80
2019-03-05T01:01:29.839Z,6.80
2019-03-05T01:04:23.820Z,6.80
2019-03-05T01:06:52.669Z,6.80
2019-03-05T01:09:21.768Z,6.70
2019-03-05T01:11:50.613Z,6.80
2019-03-05T01:14:19.464Z,6.90
2019-03-05T01:16:48.260Z,6.90
2019-03-05T01:19:17.105Z,6.90
2019-03-05T01:21:45.900Z,6.90
2019-03-05T01:24:14.800Z,6.90
2019-03-05T01:26:46.328Z,6.90
2019-03-05T01:29:15.118Z,6.80
2019-03-05T01:31:45.595Z,6.90
2019-03-05T01:34:16.412Z,6.80
2019-03-05T01:36:49.265Z,6.80
2019-03-05T01:39:23.842Z,6.80
2019-03-05T01:41:52.588Z,6.80
2019-03-05T01:44:21.321Z,6.80
2019-03-05T01:46:50.102Z,6.80
2019-03-05T01:49:19.940Z,6.80
2019-03-05T01:51:48.781Z,6.80
2019-03-05T01:54:17.511Z,6.90
2019-03-05T01:56:47.823Z,6.80
2019-03-05T01:59:16.679Z,6.80
2019-03-05T02:01:45.526Z,6.70
2019-03-05T02:04:14.821Z,6.70
2019-03-05T02:06:43.672Z,6.80
2019-03-05T02:09:33.185Z,6.80
2019-03-05T02:12:02.049Z,6.80
2019-03-05T02:14:30.825Z,6.90
2019-03-05T02:17:01.079Z,6.80
2019-03-05T02:19:44.478Z,6.70
2019-03-05T02:22:19.017Z,6.70
2019-03-05T02:25:26.437Z,6.60
2019-03-05T02:27:58.256Z,6.60
2019-03-05T02:30:51.029Z,6.60
2019-03-05T02:33:34.864Z,6.50
2019-03-05T02:36:21.512Z,6.50
2019-03-05T02:39:28.869Z,6.40
2019-03-05T02:42:03.642Z,6.40
2019-03-05T02:44:50.219Z,6.40
2019-03-05T02:47:24.545Z,6.10
2019-03-05T02:50:29.709Z,5.60
2019-03-05T02:53:07.274Z,5.10
2019-03-05T02:56:19.893Z,4.60
2019-03-05T02:58:47.812Z,4.50
2019-03-05T03:01:21.021Z,4.40
2019-03-05T03:03:53.296Z,4.40
2019-03-05T03:06:24.489Z,4.30
2019-03-05T03:09:00.175Z,4.20
2019-03-05T03:11:28.817Z,4.10
2019-03-05T03:13:57.619Z,4.10
2019-03-05T03:16:26.335Z,4.00
2019-03-05T03:18:55.273Z,4.00
2019-03-05T03:21:25.681Z,3.90
2019-03-05T03:23:54.489Z,4.00
2019-03-05T03:26:23.267Z,4.00
2019-03-05T03:28:52.038Z,4.10
2019-03-05T03:31:20.953Z,4.20
2019-03-05T03:33:49.648Z,4.30
2019-03-05T03:36:18.457Z,4.30
2019-03-05T03:38:48.670Z,4.40
2019-03-05T03:41:18.574Z,4.40
2019-03-05T03:43:48.023Z,4.60
2019-03-05T03:46:16.820Z,4.70
2019-03-05T03:48:45.536Z,4.90
2019-03-05T03:51:14.904Z,4.80
2019-03-05T03:53:43.635Z,4.80
2019-03-05T03:56:12.477Z,4.80
2019-03-05T03:58:42.741Z,4.90
2019-03-05T04:01:11.630Z,5.00
2019-03-05T04:03:42.006Z,4.90
2019-03-05T04:06:13.178Z,5.00
2019-03-05T04:08:42.029Z,5.10
2019-03-05T04:11:10.879Z,5.20
2019-03-05T04:13:39.637Z,5.20
2019-03-05T04:16:08.397Z,5.20
2019-03-05T04:18:37.131Z,5.20
2019-03-05T04:21:05.997Z,5.30
2019-03-05T04:23:34.773Z,5.20
2019-03-05T04:26:03.505Z,5.20
2019-03-05T04:28:32.356Z,5.20
2019-03-05T04:31:01.148Z,5.20
2019-03-05T04:33:29.890Z,5.20
2019-03-05T04:36:00.118Z,5.20
2019-03-05T04:38:28.917Z,5.30
2019-03-05T04:40:57.582Z,5.40
2019-03-05T04:43:26.314Z,5.40
2019-03-05T04:46:08.917Z,5.40
2019-03-05T04:48:37.637Z,5.40
2019-03-05T04:51:10.793Z,5.40
2019-03-05T04:53:39.514Z,5.30
2019-03-05T04:56:08.350Z,5.30
2019-03-05T04:58:37.078Z,5.40
2019-03-05T05:01:05.918Z,5.40
2019-03-05T05:03:34.639Z,5.50
2019-03-05T05:06:03.405Z,5.50
2019-03-05T05:08:32.254Z,5.50
2019-03-05T05:11:00.972Z,5.50
2019-03-05T05:13:29.702Z,5.60
2019-03-05T05:15:58.401Z,5.60
2019-03-05T05:18:27.089Z,5.50
2019-03-05T05:20:55.865Z,5.50
2019-03-05T05:23:24.631Z,5.60
2019-03-05T05:25:53.482Z,5.50
2019-03-05T05:28:22.132Z,5.50
2019-03-05T05:30:51.040Z,5.50
2019-03-05T05:33:19.757Z,5.50
2019-03-05T05:35:48.535Z,5.50
2019-03-05T05:38:17.332Z,5.50
2019-03-05T05:40:47.521Z,5.40
2019-03-05T05:43:21.845Z,5.40
2019-03-05T05:45:52.861Z,5.40
2019-03-05T05:48:21.774Z,5.40
2019-03-05T05:50:50.565Z,5.50
2019-03-05T05:53:19.337Z,5.60
2019-03-05T05:55:48.825Z,5.60
2019-03-05T05:58:17.593Z,5.50
2019-03-05T06:00:51.132Z,5.60
2019-03-05T06:03:19.909Z,5.50
2019-03-05T06:05:48.700Z,5.50
2019-03-05T06:08:17.558Z,5.50
2019-03-05T06:10:46.353Z,5.50
2019-03-05T06:13:15.068Z,5.50
2019-03-05T06:15:43.834Z,5.50
2019-03-05T06:18:12.557Z,5.60
2019-03-05T06:20:42.669Z,5.60
2019-03-05T06:23:11.725Z,5.60
2019-03-05T06:25:40.576Z,5.70
2019-03-05T06:28:09.295Z,5.70
2019-03-05T06:30:42.428Z,5.70
2019-03-05T06:33:11.138Z,5.70
2019-03-05T06:35:39.973Z,5.80
2019-03-05T06:38:08.679Z,5.80
2019-03-05T06:40:37.400Z,5.70
2019-03-05T06:43:06.237Z,5.70
2019-03-05T06:45:35.071Z,5.80
2019-03-05T06:48:03.862Z,5.80
2019-03-05T06:50:32.705Z,5.80
2019-03-05T06:53:01.492Z,5.80
2019-03-05T06:55:30.328Z,5.90
2019-03-05T06:57:59.041Z,5.90
2019-03-05T07:00:36.294Z,5.90
2019-03-05T07:03:07.100Z,5.90
2019-03-05T07:06:12.171Z,5.90
2019-03-05T07:08:46.813Z,6.00
2019-03-05T07:11:39.825Z,6.00
2019-03-05T07:14:34.188Z,6.00
2019-03-05T07:17:11.520Z,6.00
2019-03-05T07:20:04.412Z,5.90
2019-03-05T07:22:38.979Z,5.90
2019-03-05T07:25:07.851Z,5.90
2019-03-05T07:27:36.688Z,5.90
2019-03-05T07:30:16.882Z,5.90
2019-03-05T07:32:45.719Z,5.90
2019-03-05T07:35:16.633Z,5.90
2019-03-05T07:37:45.421Z,5.90
2019-03-05T07:40:14.263Z,5.90
2019-03-05T07:42:43.032Z,5.80
2019-03-05T07:45:12.955Z,5.70
2019-03-05T07:47:41.600Z,5.60
2019-03-05T07:50:12.350Z,5.50
2019-03-05T07:52:41.192Z,5.40
2019-03-05T07:55:14.041Z,5.40
2019-03-05T07:57:43.083Z,5.40
2019-03-05T08:00:17.037Z,5.50
2019-03-05T08:02:45.893Z,5.50
2019-03-05T08:05:15.649Z,5.50
2019-03-05T08:07:44.442Z,5.50
2019-03-05T08:10:16.213Z,5.50
2019-03-05T08:13:09.000Z,5.50
2019-03-05T08:16:09.062Z,5.60
2019-03-05T08:18:37.909Z,5.60
2019-03-05T08:21:07.099Z,5.60
2019-03-05T08:23:35.943Z,5.50
2019-03-05T08:26:04.835Z,5.50
2019-03-05T08:28:33.560Z,5.50
2019-03-05T08:31:02.342Z,5.60
2019-03-05T08:33:31.058Z,5.60
2019-03-05T08:35:59.832Z,5.60
2019-03-05T08:38:28.602Z,5.60
2019-03-05T08:40:57.302Z,5.70
2019-03-05T08:43:26.071Z,5.70
2019-03-05T08:45:54.855Z,5.60
2019-03-05T08:48:23.694Z,5.60
2019-03-05T08:50:52.491Z,5.60
2019-03-05T08:53:21.329Z,5.60
2019-03-05T08:55:50.102Z,5.50
2019-03-05T08:58:18.826Z,5.50
2019-03-05T09:00:48.255Z,5.50
2019-03-05T09:03:17.201Z,5.40
2019-03-05T09:05:46.243Z,5.40
2019-03-05T09:08:15.003Z,5.40
2019-03-05T09:10:43.729Z,5.50
2019-03-05T09:13:12.496Z,5.60
2019-03-05T09:15:41.218Z,5.70
2019-03-05T09:18:09.933Z,5.60
2019-03-05T09:20:38.714Z,5.80
2019-03-05T09:23:07.513Z,5.80
2019-03-05T09:25:36.354Z,5.80
2019-03-05T09:28:07.238Z,5.90
2019-03-05T09:30:35.664Z,5.90
2019-03-05T09:33:04.446Z,5.80
2019-03-05T09:35:33.161Z,5.80
2019-03-05T09:38:02.001Z,5.80
2019-03-05T09:40:34.207Z,6.00
2019-03-05T09:43:02.998Z,6.20
2019-03-05T09:45:31.772Z,6.40
2019-03-05T09:48:00.614Z,6.50
2019-03-05T09:50:32.005Z,6.70
2019-03-05T09:52:59.949Z,6.90
2019-03-05T09:55:30.358Z,7.00
2019-03-05T09:58:07.591Z,6.90
2019-03-05T10:00:30.736Z,6.80
2019-03-05T10:02:59.526Z,6.70
2019-03-05T10:05:28.378Z,6.70
2019-03-05T10:07:57.166Z,6.80
2019-03-05T10:10:27.160Z,6.80
2019-03-05T10:12:59.119Z,7.10
2019-03-05T10:15:27.793Z,7.90
2019-03-05T10:17:56.642Z,8.10
2019-03-05T10:20:30.952Z,7.50
2019-03-05T10:22:59.798Z,7.30
2019-03-05T10:25:28.958Z,7.20
2019-03-05T10:27:58.196Z,8.60
2019-03-05T10:30:31.296Z,9.60
2019-03-05T10:33:02.592Z,10.40
2019-03-05T10:35:31.473Z,10.80
2019-03-05T10:38:02.127Z,10.90
2019-03-05T10:40:39.600Z,11.50
2019-03-05T10:43:09.997Z,10.50
2019-03-05T10:45:40.712Z,9.50
2019-03-05T10:48:09.629Z,8.60
2019-03-05T10:50:38.426Z,8.30
2019-03-05T10:53:07.565Z,8.10
2019-03-05T10:55:36.701Z,7.90
2019-03-05T10:58:05.850Z,7.80
2019-03-05T11:00:37.849Z,7.80
2019-03-05T11:03:06.833Z,7.80
2019-03-05T11:05:37.680Z,8.00
2019-03-05T11:08:07.017Z,8.00
2019-03-05T11:10:36.470Z,8.10
2019-03-05T11:13:05.528Z,8.00
2019-03-05T11:15:35.513Z,7.90
2019-03-05T11:18:07.323Z,7.90
2019-03-05T11:20:36.292Z,7.90
2019-03-05T11:23:06.255Z,7.80
2019-03-05T11:25:35.352Z,7.90
2019-03-05T11:28:04.324Z,7.80
2019-03-05T11:30:36.591Z,7.80
2019-03-05T11:33:06.144Z,7.90
2019-03-05T11:35:35.813Z,8.00
2019-03-05T11:38:05.044Z,8.00
2019-03-05T11:40:33.919Z,7.90
2019-03-05T11:43:05.669Z,7.90
2019-03-05T11:45:34.601Z,7.90
2019-03-05T11:48:03.594Z,8.00
2019-03-05T11:50:32.399Z,8.00
2019-03-05T11:53:01.305Z,8.50
2019-03-05T11:55:31.466Z,9.40
2019-03-05T11:58:00.392Z,9.50
2019-03-05T12:00:48.208Z,9.40
2019-03-05T12:03:17.200Z,9.00
2019-03-05T12:05:46.017Z,9.00
2019-03-05T12:08:14.879Z,9.40
2019-03-05T12:10:43.693Z,9.90
2019-03-05T12:13:14.498Z,9.90
2019-03-05T12:15:44.944Z,10.50
2019-03-05T12:18:14.009Z,10.70
2019-03-05T12:20:42.814Z,11.10
2019-03-05T12:23:11.917Z,11.00
2019-03-05T12:25:41.431Z,10.20
2019-03-05T12:28:10.992Z,9.70
2019-03-05T12:30:40.941Z,9.60
2019-03-05T12:33:09.809Z,9.40
2019-03-05T12:35:38.865Z,9.10
2019-03-05T12:38:07.897Z,8.80
2019-03-05T12:40:36.919Z,8.80
2019-03-05T12:43:06.519Z,9.00
2019-03-05T12:45:35.461Z,9.00
2019-03-05T12:48:04.901Z,9.10
2019-03-05T12:50:36.133Z,9.20
2019-03-05T12:53:05.482Z,9.30
2019-03-05T12:55:34.576Z,9.30
2019-03-05T12:58:03.786Z,9.40
2019-03-05T13:00:36.704Z,9.50
2019-03-05T13:03:05.764Z,9.80
2019-03-05T13:05:34.654Z,9.90
2019-03-05T13:08:03.708Z,9.80
2019-03-05T13:10:35.857Z,9.80
2019-03-05T13:13:04.592Z,9.80
2019-03-05T13:15:34.909Z,10.20
2019-03-05T13:18:04.118Z,10.50
2019-03-05T13:20:33.179Z,10.20
2019-03-05T13:23:08.520Z,9.80
2019-03-05T13:25:32.718Z,9.60
2019-03-05T13:28:02.538Z,10.20
2019-03-05T13:30:33.283Z,10.70
2019-03-05T13:33:02.071Z,11.00
2019-03-05T13:35:32.205Z,11.00
2019-03-05T13:38:07.360Z,10.70
2019-03-05T13:40:38.269Z,10.40
2019-03-05T13:43:05.268Z,10.20
2019-03-05T13:45:34.146Z,10.20
2019-03-05T13:48:08.878Z,10.30
2019-03-05T13:50:46.588Z,10.80
2019-03-05T13:53:30.342Z,11.00
2019-03-05T13:56:12.003Z,11.20
2019-03-05T13:59:05.158Z,11.20
2019-03-05T14:01:34.036Z,11.40
2019-03-05T14:04:11.667Z,11.70
2019-03-05T14:06:52.100Z,11.70
2019-03-05T14:09:19.871Z,11.70
2019-03-05T14:11:50.048Z,11.70
2019-03-05T14:14:23.466Z,11.40
2019-03-05T14:16:59.515Z,11.40
2019-03-05T14:19:28.518Z,11.40
2019-03-05T14:21:57.609Z,11.50
2019-03-05T14:24:26.655Z,11.70
2019-03-05T14:26:55.692Z,11.70
2019-03-05T14:29:24.676Z,12.00
2019-03-05T14:31:53.812Z,12.20
2019-03-05T14:34:22.678Z,12.30
2019-03-05T14:36:51.617Z,12.30
2019-03-05T14:39:25.145Z,11.80
2019-03-05T14:41:53.975Z,11.50
2019-03-05T14:44:22.938Z,11.80
2019-03-05T14:47:00.403Z,12.00
2019-03-05T14:49:29.975Z,12.00
2019-03-05T14:51:58.958Z,11.50
2019-03-05T14:54:28.312Z,11.50
2019-03-05T14:56:57.296Z,11.30
2019-03-05T14:59:26.333Z,10.90
2019-03-05T15:01:55.318Z,10.80
2019-03-05T15:04:24.110Z,10.70
2019-03-05T15:06:52.947Z,10.60
2019-03-05T15:09:21.962Z,10.20
2019-03-05T15:11:50.917Z,10.00
2019-03-05T15:14:19.887Z,9.80
2019-03-05T15:16:48.786Z,9.90
2019-03-05T15:19:21.672Z,9.80
2019-03-05T15:21:51.294Z,9.60
2019-03-05T15:24:20.030Z,9.50
2019-03-05T15:26:48.923Z,9.60
2019-03-05T15:29:17.753Z,9.60
2019-03-05T15:31:46.737Z,9.70
2019-03-05T15:34:15.711Z,9.70
2019-03-05T15:36:44.553Z,9.80
2019-03-05T15:39:14.045Z,9.80
2019-03-05T15:41:46.047Z,9.70
2019-03-05T15:44:13.419Z,9.60
2019-03-05T15:54:29.137Z,9.30
2019-03-05T15:56:58.366Z,9.30
2019-03-05T15:59:27.331Z,9.40
2019-03-05T16:01:56.954Z,9.60
2019-03-05T16:04:25.867Z,9.70
2019-03-05T16:06:56.779Z,9.50
2019-03-05T16:09:25.919Z,9.30
2019-03-05T16:12:09.445Z,9.10
2019-03-05T16:14:37.437Z,9.10
2019-03-05T16:17:06.279Z,9.20
2019-03-05T16:19:35.244Z,9.20
2019-03-05T16:39:49.670Z,8.60
2019-03-05T16:42:23.327Z,8.30
2019-03-05T16:45:10.165Z,8.20
2019-03-05T16:47:42.652Z,8.20
2019-03-05T16:50:13.496Z,8.00
2019-03-05T16:53:00.421Z,7.90
2019-03-05T16:55:50.119Z,7.70
2019-03-05T16:58:20.617Z,7.60
2019-03-05T17:01:07.458Z,7.40
2019-03-05T17:03:47.130Z,7.30
2019-03-05T17:06:18.024Z,7.20
2019-03-05T17:09:00.463Z,7.10
2019-03-05T17:11:31.004Z,7.00
2019-03-05T17:13:59.850Z,6.90
2019-03-05T17:16:28.723Z,6.80
2019-03-05T17:18:57.752Z,6.80
2019-03-05T17:21:27.753Z,6.70
2019-03-05T17:23:56.946Z,6.70
2019-03-05T17:26:25.770Z,6.70
2019-03-05T17:28:54.610Z,6.60
2019-03-05T17:31:23.414Z,6.70
2019-03-05T17:33:52.263Z,6.70
2019-03-05T17:36:21.067Z,6.80
2019-03-05T17:38:49.922Z,6.70
2019-03-05T17:41:18.789Z,6.70
2019-03-05T17:43:47.577Z,6.70
2019-03-05T17:46:16.435Z,6.70
2019-03-05T17:48:45.232Z,6.70
2019-03-05T17:51:14.430Z,6.80
2019-03-05T17:53:43.282Z,6.80
2019-03-05T17:56:12.239Z,6.90
2019-03-05T17:58:41.029Z,6.90
2019-03-05T18:01:09.962Z,7.00
2019-03-05T18:03:39.076Z,7.00
2019-03-05T18:06:08.394Z,6.90
2019-03-05T18:08:37.462Z,6.90
2019-03-05T18:11:06.375Z,6.80
2019-03-05T18:13:35.703Z,6.70
2019-03-05T18:16:04.808Z,6.60
2019-03-05T18:18:33.808Z,6.60
2019-03-05T18:21:03.422Z,6.50
2019-03-05T18:23:32.613Z,6.50
2019-03-05T18:26:01.665Z,6.40
2019-03-05T18:28:31.502Z,6.30
2019-03-05T18:31:00.883Z,6.30
2019-03-05T18:33:30.143Z,6.20
2019-03-05T18:35:59.682Z,6.10
2019-03-05T18:38:28.883Z,5.90
2019-03-05T18:40:58.100Z,5.80
2019-03-05T18:43:27.238Z,5.80
2019-03-05T18:45:56.078Z,5.80
2019-03-05T18:48:24.888Z,5.80
2019-03-05T18:50:53.837Z,5.90
2019-03-05T18:53:22.717Z,5.90
2019-03-05T18:55:51.518Z,5.90
2019-03-05T18:58:20.370Z,5.90
2019-03-05T19:00:49.172Z,5.90
2019-03-05T19:03:19.971Z,6.00
2019-03-05T19:05:49.842Z,6.00
2019-03-05T19:08:18.813Z,6.00
2019-03-05T19:10:48.093Z,6.10
2019-03-05T19:13:16.978Z,6.10
2019-03-05T19:15:46.272Z,6.10
2019-03-05T19:18:15.144Z,6.00
2019-03-05T19:20:44.061Z,6.10
2019-03-05T19:23:12.972Z,6.10
2019-03-05T19:25:43.881Z,6.00
2019-03-05T19:28:12.837Z,6.00
2019-03-05T19:30:46.533Z,6.10
2019-03-05T19:33:15.362Z,6.00
2019-03-05T19:35:44.177Z,6.10
2019-03-05T19:38:13.129Z,6.20
2019-03-05T19:40:43.234Z,6.20
2019-03-05T19:43:13.435Z,6.20
2019-03-05T19:45:42.294Z,6.00
2019-03-05T19:48:11.211Z,6.10
2019-03-05T19:50:40.067Z,6.10
2019-03-05T19:53:08.857Z,6.20
2019-03-05T19:55:37.709Z,6.10
2019-03-05T19:58:16.331Z,6.10
2019-03-05T20:01:09.195Z,6.10
2019-03-05T20:03:38.063Z,5.90
2019-03-05T20:06:07.014Z,5.90
2019-03-05T20:08:39.923Z,5.90
2019-03-05T20:11:06.975Z,5.80
2019-03-05T20:13:36.809Z,5.80
2019-03-05T20:16:06.877Z,5.70
2019-03-05T20:18:35.932Z,5.60
2019-03-05T20:21:04.940Z,5.60
2019-03-05T20:23:34.980Z,5.70
2019-03-05T20:26:04.123Z,5.70
2019-03-05T20:28:35.860Z,5.60
2019-03-05T20:31:05.070Z,5.60
2019-03-05T20:33:34.284Z,5.60
2019-03-05T20:36:03.104Z,5.50
2019-03-05T20:38:32.194Z,5.50
2019-03-05T20:41:01.050Z,5.50
2019-03-05T20:43:31.716Z,5.40
2019-03-05T20:46:03.852Z,5.50
2019-03-05T20:48:32.783Z,5.50
2019-03-05T20:51:01.873Z,5.40
2019-03-05T20:53:31.008Z,5.40
2019-03-05T20:55:59.879Z,5.40
2019-03-05T20:58:29.001Z,5.50
2019-03-05T21:00:58.039Z,5.50
2019-03-05T21:03:27.143Z,5.50
2019-03-05T21:05:56.176Z,5.60
2019-03-05T21:08:25.108Z,5.60
2019-03-05T21:10:54.199Z,5.60
2019-03-05T21:13:23.051Z,5.60
2019-03-05T21:15:51.858Z,5.60
2019-03-05T21:18:20.703Z,5.70
2019-03-05T21:20:49.547Z,5.60
2019-03-05T21:23:18.753Z,5.60
2019-03-05T21:25:47.633Z,5.60
2019-03-05T21:28:16.481Z,5.60
2019-03-05T21:30:45.326Z,5.60
2019-03-05T21:33:14.149Z,5.60
2019-03-05T21:35:42.978Z,5.60
2019-03-05T21:38:11.778Z,5.60
2019-03-05T21:40:40.642Z,5.40
2019-03-05T21:43:09.597Z,5.40
2019-03-05T21:45:40.397Z,5.30
2019-03-05T21:48:09.248Z,5.30
2019-03-05T21:50:38.047Z,5.30
2019-03-05T21:53:06.995Z,5.20
2019-03-05T21:55:35.786Z,5.20
2019-03-05T21:58:04.585Z,5.20
2019-03-05T22:00:35.531Z,5.20
2019-03-05T22:03:05.286Z,5.20
2019-03-05T22:05:34.133Z,5.20
2019-03-05T22:08:02.934Z,5.30
2019-03-05T22:10:31.787Z,5.20
2019-03-05T22:13:00.612Z,5.20
2019-03-05T22:15:30.668Z,5.20
2019-03-05T22:17:59.458Z,5.10
2019-03-05T22:20:28.377Z,5.20
2019-03-05T22:22:57.628Z,5.20
2019-03-05T22:25:26.429Z,5.30
2019-03-05T22:27:55.279Z,5.30
2019-03-05T22:30:35.177Z,5.30
2019-03-05T22:33:04.222Z,5.40
2019-03-05T22:35:33.025Z,5.40
2019-03-05T22:38:01.904Z,5.40
2019-03-05T22:40:30.712Z,5.40
2019-03-05T22:42:59.567Z,5.40
2019-03-05T22:45:30.346Z,5.40
2019-03-05T22:47:59.195Z,5.30
2019-03-05T22:50:28.003Z,5.40
2019-03-05T22:52:56.802Z,5.30
2019-03-05T22:55:25.664Z,5.30
2019-03-05T22:57:54.470Z,5.30
2019-03-05T23:00:44.713Z,5.40
2019-03-05T23:03:16.686Z,5.30
2019-03-05T23:05:45.541Z,5.30
2019-03-05T23:08:14.351Z,5.30
2019-03-05T23:10:43.211Z,5.30
2019-03-05T23:13:12.605Z,5.20
2019-03-05T23:15:41.513Z,5.20
2019-03-05T23:18:10.376Z,5.20
2019-03-05T23:20:39.231Z,5.20
2019-03-05T23:23:07.955Z,5.20
2019-03-05T23:25:36.763Z,5.20
2019-03-05T23:28:06.731Z,5.10
2019-03-05T23:30:35.703Z,5.00
2019-03-05T23:33:04.501Z,5.00
2019-03-05T23:35:33.363Z,5.10
2019-03-05T23:38:02.163Z,5.10
2019-03-05T23:40:31.021Z,5.10
2019-03-05T23:42:59.837Z,5.10
2019-03-05T23:45:28.989Z,5.10
2019-03-05T23:47:57.850Z,5.10
2019-03-05T23:50:26.655Z,5.20
2019-03-05T23:52:55.812Z,5.20
2019-03-05T23:55:24.611Z,5.20
2019-03-05T23:57:53.458Z,5.30
